sensor_id;sensor_type;location;lat;lon;timestamp;pressure;altitude;pressure_sealevel;temperature;humidity
64679;BME280;51094;53.864;27.676;2023-11-22T00:01:04;99696.34;;;-2.51;52.53
64679;BME280;51094;53.864;27.676;2023-11-22T00:03:31;99715.72;;;-2.38;52.93
64679;BME280;51094;53.864;27.676;2023-11-22T00:05:58;99764.66;;;-2.12;52.72
64679;BME280;51094;53.864;27.676;2023-11-22T00:08:25;99708.13;;;-2.41;53.21
64679;BME280;51094;53.864;27.676;2023-11-22T00:10:51;99702.19;;;-2.40;53.61
64679;BME280;51094;53.864;27.676;2023-11-22T00:13:18;99684.44;;;-2.49;53.73
64679;BME280;51094;53.864;27.676;2023-11-22T00:15:45;99700.53;;;-2.46;53.97
64679;BME280;51094;53.864;27.676;2023-11-22T00:18:12;99735.72;;;-2.06;53.88
64679;BME280;51094;53.864;27.676;2023-11-22T00:20:39;99676.34;;;-2.85;54.02
64679;BME280;51094;53.864;27.676;2023-11-22T00:23:06;99751.63;;;-1.84;54.00
64679;BME280;51094;53.864;27.676;2023-11-22T00:25:33;99747.44;;;-1.91;53.82
64679;BME280;51094;53.864;27.676;2023-11-22T00:28:00;99749.19;;;-1.93;54.31
64679;BME280;51094;53.864;27.676;2023-11-22T00:30:27;99751.75;;;-1.96;54.11
64679;BME280;51094;53.864;27.676;2023-11-22T00:32:54;99759.38;;;-1.93;54.64
64679;BME280;51094;53.864;27.676;2023-11-22T00:35:21;99760.22;;;-1.94;54.70
64679;BME280;51094;53.864;27.676;2023-11-22T00:37:50;99757.69;;;-1.96;54.65
64679;BME280;51094;53.864;27.676;2023-11-22T00:40:17;99714.88;;;-2.37;54.47
64679;BME280;51094;53.864;27.676;2023-11-22T00:42:44;99773.94;;;-2.05;54.75
64679;BME280;51094;53.864;27.676;2023-11-22T00:45:11;99569.91;;;-3.24;54.89
64679;BME280;51094;53.864;27.676;2023-11-22T00:47:38;99740.84;;;-2.08;55.35
64679;BME280;51094;53.864;27.676;2023-11-22T00:50:06;99766.16;;;-1.92;55.25
64679;BME280;51094;53.864;27.676;2023-11-22T00:52:34;99758.47;;;-1.89;55.60
64679;BME280;51094;53.864;27.676;2023-11-22T00:55:02;99757.56;;;-1.84;55.29
64679;BME280;51094;53.864;27.676;2023-11-22T00:57:29;99760.16;;;-1.88;55.73
64679;BME280;51094;53.864;27.676;2023-11-22T00:59:56;99757.59;;;-1.87;55.89
64679;BME280;51094;53.864;27.676;2023-11-22T01:02:23;99704.59;;;-2.28;55.54
64679;BME280;51094;53.864;27.676;2023-11-22T01:04:50;99758.41;;;-1.83;55.72
64679;BME280;51094;53.864;27.676;2023-11-22T01:07:17;99726.50;;;-2.16;55.48
64679;BME280;51094;53.864;27.676;2023-11-22T01:09:44;99752.69;;;-2.02;55.52
64679;BME280;51094;53.864;27.676;2023-11-22T01:12:11;99761.13;;;-1.98;56.10
64679;BME280;51094;53.864;27.676;2023-11-22T01:14:38;99696.25;;;-2.42;55.67
64679;BME280;51094;53.864;27.676;2023-11-22T01:17:05;99748.47;;;-2.06;56.12
64679;BME280;51094;53.864;27.676;2023-11-22T01:19:32;99754.41;;;-2.06;56.47
64679;BME280;51094;53.864;27.676;2023-11-22T01:22:00;99685.34;;;-2.53;56.92
64679;BME280;51094;53.864;27.676;2023-11-22T01:24:27;99757.16;;;-2.21;56.70
64679;BME280;51094;53.864;27.676;2023-11-22T01:26:55;99749.56;;;-2.27;56.97
64679;BME280;51094;53.864;27.676;2023-11-22T01:29:23;99741.03;;;-2.23;57.60
64679;BME280;51094;53.864;27.676;2023-11-22T01:31:50;99747.78;;;-2.19;58.02
64679;BME280;51094;53.864;27.676;2023-11-22T01:34:17;99737.50;;;-2.13;57.68
64679;BME280;51094;53.864;27.676;2023-11-22T01:36:44;99708.94;;;-2.38;57.30
64679;BME280;51094;53.864;27.676;2023-11-22T01:39:14;99744.34;;;-2.16;57.53
64679;BME280;51094;53.864;27.676;2023-11-22T01:41:45;99730.72;;;-2.14;57.72
64679;BME280;51094;53.864;27.676;2023-11-22T01:44:12;99678.47;;;-2.47;57.81
64679;BME280;51094;53.864;27.676;2023-11-22T01:46:39;99743.44;;;-2.11;57.88
64679;BME280;51094;53.864;27.676;2023-11-22T01:49:09;99741.66;;;-2.06;58.31
64679;BME280;51094;53.864;27.676;2023-11-22T01:51:37;99733.22;;;-2.11;57.81
64679;BME280;51094;53.864;27.676;2023-11-22T01:54:06;99743.34;;;-2.05;58.61
64679;BME280;51094;53.864;27.676;2023-11-22T01:56:35;99741.78;;;-2.15;57.94
64679;BME280;51094;53.864;27.676;2023-11-22T01:59:04;99733.34;;;-2.17;57.91
64679;BME280;51094;53.864;27.676;2023-11-22T02:01:31;99741.03;;;-2.21;57.60
64679;BME280;51094;53.864;27.676;2023-11-22T02:03:58;99733.41;;;-2.23;58.17
64679;BME280;51094;53.864;27.676;2023-11-22T02:06:26;99724.16;;;-2.31;57.85
64679;BME280;51094;53.864;27.676;2023-11-22T02:08:53;99740.16;;;-2.19;58.08
64679;BME280;51094;53.864;27.676;2023-11-22T02:11:22;99735.00;;;-2.16;58.36
64679;BME280;51094;53.864;27.676;2023-11-22T02:13:49;99517.59;;;-3.47;57.97
64679;BME280;51094;53.864;27.676;2023-11-22T02:16:19;99740.19;;;-2.22;57.56
64679;BME280;51094;53.864;27.676;2023-11-22T02:18:47;99744.50;;;-2.28;57.89
64679;BME280;51094;53.864;27.676;2023-11-22T02:21:17;99690.47;;;-2.56;57.81
64679;BME280;51094;53.864;27.676;2023-11-22T02:23:44;99747.88;;;-2.26;57.71
64679;BME280;51094;53.864;27.676;2023-11-22T02:26:12;99545.66;;;-3.59;57.91
64679;BME280;51094;53.864;27.676;2023-11-22T02:28:39;99731.13;;;-2.50;58.04
64679;BME280;51094;53.864;27.676;2023-11-22T02:31:06;99747.94;;;-2.31;57.49
64679;BME280;51094;53.864;27.676;2023-11-22T02:33:33;99751.31;;;-2.29;57.26
64679;BME280;51094;53.864;27.676;2023-11-22T02:36:00;99749.69;;;-2.38;57.24
64679;BME280;51094;53.864;27.676;2023-11-22T02:38:28;99744.69;;;-2.48;57.19
64679;BME280;51094;53.864;27.676;2023-11-22T02:40:55;99710.13;;;-2.67;57.90
64679;BME280;51094;53.864;27.676;2023-11-22T02:43:22;99723.59;;;-2.59;57.17
64679;BME280;51094;53.864;27.676;2023-11-22T02:45:50;99683.13;;;-2.84;57.46
64679;BME280;51094;53.864;27.676;2023-11-22T02:48:17;99710.13;;;-2.67;57.46
64679;BME280;51094;53.864;27.676;2023-11-22T02:50:45;99739.63;;;-2.50;57.60
64679;BME280;51094;53.864;27.676;2023-11-22T02:53:12;99730.28;;;-2.49;57.58
64679;BME280;51094;53.864;27.676;2023-11-22T02:55:39;99716.75;;;-2.54;57.14
64679;BME280;51094;53.864;27.676;2023-11-22T02:58:07;99738.75;;;-2.47;57.44
64679;BME280;51094;53.864;27.676;2023-11-22T03:00:34;99754.69;;;-2.28;56.97
64679;BME280;51094;53.864;27.676;2023-11-22T03:03:01;99715.91;;;-2.56;57.08
64679;BME280;51094;53.864;27.676;2023-11-22T03:05:30;99753.91;;;-2.33;57.73
64679;BME280;51094;53.864;27.676;2023-11-22T03:07:57;99700.63;;;-2.55;57.66
64679;BME280;51094;53.864;27.676;2023-11-22T03:10:25;99745.44;;;-2.37;57.39
64679;BME280;51094;53.864;27.676;2023-11-22T03:12:52;99759.59;;;-2.15;57.30
64679;BME280;51094;53.864;27.676;2023-11-22T03:15:20;99749.44;;;-2.16;57.35
64679;BME280;51094;53.864;27.676;2023-11-22T03:17:48;99755.38;;;-2.16;56.87
64679;BME280;51094;53.864;27.676;2023-11-22T03:20:17;99758.06;;;-2.25;57.13
64679;BME280;51094;53.864;27.676;2023-11-22T03:22:45;99746.25;;;-2.32;58.17
64679;BME280;51094;53.864;27.676;2023-11-22T03:25:12;99730.19;;;-2.42;58.42
64679;BME280;51094;53.864;27.676;2023-11-22T03:27:40;99704.81;;;-2.48;59.03
64679;BME280;51094;53.864;27.676;2023-11-22T03:30:08;99763.97;;;-2.21;58.95
64679;BME280;51094;53.864;27.676;2023-11-22T03:32:39;99747.16;;;-2.39;58.98
64679;BME280;51094;53.864;27.676;2023-11-22T03:35:07;99734.66;;;-2.60;59.47
64679;BME280;51094;53.864;27.676;2023-11-22T03:37:36;99733.75;;;-2.58;59.56
64679;BME280;51094;53.864;27.676;2023-11-22T03:40:04;99768.41;;;-2.43;60.05
64679;BME280;51094;53.864;27.676;2023-11-22T03:42:31;99668.81;;;-2.97;59.68
64679;BME280;51094;53.864;27.676;2023-11-22T03:44:58;99764.97;;;-2.36;60.56
64679;BME280;51094;53.864;27.676;2023-11-22T03:47:26;99765.75;;;-2.29;59.92
64679;BME280;51094;53.864;27.676;2023-11-22T03:49:53;99719.41;;;-2.62;60.28
64679;BME280;51094;53.864;27.676;2023-11-22T03:52:20;99733.78;;;-2.59;59.96
64679;BME280;51094;53.864;27.676;2023-11-22T03:54:47;99787.88;;;-2.36;60.20
64679;BME280;51094;53.864;27.676;2023-11-22T03:57:14;99679.84;;;-2.95;59.86
64679;BME280;51094;53.864;27.676;2023-11-22T03:59:42;99781.09;;;-2.37;60.23
64679;BME280;51094;53.864;27.676;2023-11-22T04:02:10;99769.25;;;-2.41;60.38
64679;BME280;51094;53.864;27.676;2023-11-22T04:04:37;99787.03;;;-2.38;60.31
64679;BME280;51094;53.864;27.676;2023-11-22T04:07:07;99759.22;;;-2.59;60.06
64679;BME280;51094;53.864;27.676;2023-11-22T04:09:34;99778.72;;;-2.55;59.59
64679;BME280;51094;53.864;27.676;2023-11-22T04:12:01;99793.97;;;-2.54;60.42
64679;BME280;51094;53.864;27.676;2023-11-22T04:14:28;99794.00;;;-2.55;59.67
64679;BME280;51094;53.864;27.676;2023-11-22T04:16:56;99762.69;;;-2.63;60.12
64679;BME280;51094;53.864;27.676;2023-11-22T04:19:24;99740.94;;;-2.99;59.77
64679;BME280;51094;53.864;27.676;2023-11-22T04:21:51;99784.69;;;-2.59;59.56
64679;BME280;51094;53.864;27.676;2023-11-22T04:24:18;99794.81;;;-2.50;59.38
64679;BME280;51094;53.864;27.676;2023-11-22T04:26:45;99800.78;;;-2.54;59.69
64679;BME280;51094;53.864;27.676;2023-11-22T04:29:14;99799.94;;;-2.55;59.64
64679;BME280;51094;53.864;27.676;2023-11-22T04:31:43;99750.94;;;-2.77;59.91
64679;BME280;51094;53.864;27.676;2023-11-22T04:34:10;99720.50;;;-2.89;59.56
64679;BME280;51094;53.864;27.676;2023-11-22T04:36:37;99786.25;;;-2.43;59.92
64679;BME280;51094;53.864;27.676;2023-11-22T04:39:05;99811.66;;;-2.37;59.08
64679;BME280;51094;53.864;27.676;2023-11-22T04:41:34;99822.81;;;-2.49;58.42
64679;BME280;51094;53.864;27.676;2023-11-22T04:44:01;99817.69;;;-2.46;59.22
64679;BME280;51094;53.864;27.676;2023-11-22T04:46:29;99812.63;;;-2.52;58.34
64679;BME280;51094;53.864;27.676;2023-11-22T04:48:56;99809.34;;;-2.60;58.49
64679;BME280;51094;53.864;27.676;2023-11-22T04:51:24;99806.84;;;-2.67;58.64
64679;BME280;51094;53.864;27.676;2023-11-22T04:53:51;99810.25;;;-2.69;58.88
64679;BME280;51094;53.864;27.676;2023-11-22T04:56:18;99838.16;;;-2.58;58.31
64679;BME280;51094;53.864;27.676;2023-11-22T04:58:45;99841.53;;;-2.56;58.87
64679;BME280;51094;53.864;27.676;2023-11-22T05:01:12;99814.56;;;-2.75;58.23
64679;BME280;51094;53.864;27.676;2023-11-22T05:03:43;99847.72;;;-2.89;59.71
64679;BME280;51094;53.864;27.676;2023-11-22T05:06:10;99841.22;;;-3.29;59.82
64679;BME280;51094;53.864;27.676;2023-11-22T05:08:37;99856.63;;;-3.60;60.61
64679;BME280;51094;53.864;27.676;2023-11-22T05:11:04;99848.22;;;-3.76;60.21
64679;BME280;51094;53.864;27.676;2023-11-22T05:13:31;99864.31;;;-3.78;61.24
64679;BME280;51094;53.864;27.676;2023-11-22T05:15:58;99871.09;;;-3.86;60.71
64679;BME280;51094;53.864;27.676;2023-11-22T05:18:25;99873.69;;;-3.92;61.01
64679;BME280;51094;53.864;27.676;2023-11-22T05:20:52;99844.09;;;-4.19;61.46
64679;BME280;51094;53.864;27.676;2023-11-22T05:23:19;99849.16;;;-4.15;61.38
64679;BME280;51094;53.864;27.676;2023-11-22T05:25:46;99784.94;;;-4.61;60.45
64679;BME280;51094;53.864;27.676;2023-11-22T05:28:13;99895.72;;;-4.25;60.66
64679;BME280;51094;53.864;27.676;2023-11-22T05:30:40;99878.81;;;-4.20;60.21
64679;BME280;51094;53.864;27.676;2023-11-22T05:33:07;99894.88;;;-4.22;60.63
64679;BME280;51094;53.864;27.676;2023-11-22T05:35:34;99898.31;;;-4.37;60.87
64679;BME280;51094;53.864;27.676;2023-11-22T05:38:01;99904.22;;;-4.47;60.98
64679;BME280;51094;53.864;27.676;2023-11-22T05:40:29;99876.28;;;-4.85;61.05
64679;BME280;51094;53.864;27.676;2023-11-22T05:42:55;99906.75;;;-4.67;61.20
64679;BME280;51094;53.864;27.676;2023-11-22T05:45:22;99904.22;;;-4.81;60.36
64679;BME280;51094;53.864;27.676;2023-11-22T05:47:50;99907.59;;;-4.79;61.21
64679;BME280;51094;53.864;27.676;2023-11-22T05:50:18;99844.13;;;-5.08;60.33
64679;BME280;51094;53.864;27.676;2023-11-22T05:52:45;99908.44;;;-4.84;60.60
64679;BME280;51094;53.864;27.676;2023-11-22T05:55:11;99916.88;;;-4.87;59.99
64679;BME280;51094;53.864;27.676;2023-11-22T05:57:41;99930.44;;;-4.59;60.99
64679;BME280;51094;53.864;27.676;2023-11-22T06:00:08;99937.19;;;-4.61;60.94
64679;BME280;51094;53.864;27.676;2023-11-22T06:02:36;99884.75;;;-4.88;60.06
64679;BME280;51094;53.864;27.676;2023-11-22T06:05:04;99899.94;;;-4.95;60.38
64679;BME280;51094;53.864;27.676;2023-11-22T06:07:32;99926.16;;;-4.98;60.36
64679;BME280;51094;53.864;27.676;2023-11-22T06:10:00;99942.19;;;-5.00;61.34
64679;BME280;51094;53.864;27.676;2023-11-22T06:12:29;99953.19;;;-4.98;61.14
64679;BME280;51094;53.864;27.676;2023-11-22T06:14:56;99916.81;;;-5.10;61.06
64679;BME280;51094;53.864;27.676;2023-11-22T06:17:23;99961.72;;;-4.81;61.11
64679;BME280;51094;53.864;27.676;2023-11-22T06:19:50;99910.94;;;-4.95;60.93
64679;BME280;51094;53.864;27.676;2023-11-22T06:22:17;99956.66;;;-4.64;59.26
64679;BME280;51094;53.864;27.676;2023-11-22T06:24:46;99956.63;;;-4.72;60.10
64679;BME280;51094;53.864;27.676;2023-11-22T06:27:15;99944.81;;;-4.79;60.09
64679;BME280;51094;53.864;27.676;2023-11-22T06:29:42;99903.25;;;-5.19;59.57
64679;BME280;51094;53.864;27.676;2023-11-22T06:32:12;99904.94;;;-5.27;60.05
64679;BME280;51094;53.864;27.676;2023-11-22T06:34:39;99943.88;;;-5.03;59.85
64679;BME280;51094;53.864;27.676;2023-11-22T06:37:06;99946.47;;;-4.86;59.91
64679;BME280;51094;53.864;27.676;2023-11-22T06:39:35;99932.94;;;-4.88;60.02
64679;BME280;51094;53.864;27.676;2023-11-22T06:42:03;99955.81;;;-4.66;58.86
64679;BME280;51094;53.864;27.676;2023-11-22T06:44:30;99939.72;;;-4.72;59.40
64679;BME280;51094;53.864;27.676;2023-11-22T06:46:57;99805.16;;;-5.54;58.27
64679;BME280;51094;53.864;27.676;2023-11-22T06:49:23;99947.34;;;-4.82;58.04
64679;BME280;51094;53.864;27.676;2023-11-22T06:51:50;99896.53;;;-5.02;58.29
64679;BME280;51094;53.864;27.676;2023-11-22T06:54:21;99910.97;;;-4.83;58.51
64679;BME280;51094;53.864;27.676;2023-11-22T06:56:48;99923.66;;;-4.66;57.85
64679;BME280;51094;53.864;27.676;2023-11-22T06:59:17;99943.13;;;-4.60;55.90
64679;BME280;51094;53.864;27.676;2023-11-22T07:01:45;99980.34;;;-4.59;56.96
64679;BME280;51094;53.864;27.676;2023-11-22T07:04:12;99950.69;;;-4.88;56.61
64679;BME280;51094;53.864;27.676;2023-11-22T07:06:40;99936.28;;;-5.03;56.40
64679;BME280;51094;53.864;27.676;2023-11-22T07:09:07;99983.72;;;-4.79;56.28
64679;BME280;51094;53.864;27.676;2023-11-22T07:11:36;99989.63;;;-4.83;56.57
64679;BME280;51094;53.864;27.676;2023-11-22T07:14:03;99961.63;;;-5.04;56.30
64679;BME280;51094;53.864;27.676;2023-11-22T07:16:30;99987.06;;;-4.84;56.09
64679;BME280;51094;53.864;27.676;2023-11-22T07:18:57;100001.44;;;-4.89;55.46
64679;BME280;51094;53.864;27.676;2023-11-22T07:21:24;99986.19;;;-4.95;56.07
64679;BME280;51094;53.864;27.676;2023-11-22T07:23:51;99961.59;;;-5.10;56.13
64679;BME280;51094;53.864;27.676;2023-11-22T07:26:19;99996.38;;;-4.74;54.55
64679;BME280;51094;53.864;27.676;2023-11-22T07:28:47;99865.16;;;-5.50;54.64
64679;BME280;51094;53.864;27.676;2023-11-22T07:31:13;99985.41;;;-4.65;55.28
64679;BME280;51094;53.864;27.676;2023-11-22T07:33:41;99943.06;;;-4.95;54.08
64679;BME280;51094;53.864;27.676;2023-11-22T07:36:08;100004.88;;;-4.63;54.57
64679;BME280;51094;53.864;27.676;2023-11-22T07:38:36;99967.53;;;-5.08;53.53
64679;BME280;51094;53.864;27.676;2023-11-22T07:41:04;100009.94;;;-4.68;54.22
64679;BME280;51094;53.864;27.676;2023-11-22T07:43:36;100008.22;;;-4.70;52.99
64679;BME280;51094;53.864;27.676;2023-11-22T07:46:07;100024.31;;;-4.63;53.73
64679;BME280;51094;53.864;27.676;2023-11-22T07:48:41;99928.75;;;-4.80;53.66
64679;BME280;51094;53.864;27.676;2023-11-22T07:51:08;100001.53;;;-4.41;50.83
64679;BME280;51094;53.864;27.676;2023-11-22T07:53:35;99991.38;;;-4.45;52.09
64679;BME280;51094;53.864;27.676;2023-11-22T07:56:02;100017.63;;;-4.25;52.67
64679;BME280;51094;53.864;27.676;2023-11-22T07:58:33;99955.81;;;-4.63;51.20
64679;BME280;51094;53.864;27.676;2023-11-22T08:01:00;100025.25;;;-4.26;51.73
64679;BME280;51094;53.864;27.676;2023-11-22T08:03:31;99992.22;;;-4.43;52.23
64679;BME280;51094;53.864;27.676;2023-11-22T08:05:58;100013.41;;;-4.14;51.07
64679;BME280;51094;53.864;27.676;2023-11-22T08:08:24;99975.31;;;-4.38;51.46
64679;BME280;51094;53.864;27.676;2023-11-22T08:10:52;100037.97;;;-4.04;50.89
64679;BME280;51094;53.864;27.676;2023-11-22T08:13:20;100036.25;;;-4.21;49.75
64679;BME280;51094;53.864;27.676;2023-11-22T08:15:49;100044.72;;;-4.24;51.11
64679;BME280;51094;53.864;27.676;2023-11-22T08:18:17;99996.47;;;-4.45;51.55
64679;BME280;51094;53.864;27.676;2023-11-22T08:20:44;100012.56;;;-4.22;51.07
64679;BME280;51094;53.864;27.676;2023-11-22T08:23:11;100010.03;;;-4.14;51.10
64679;BME280;51094;53.864;27.676;2023-11-22T08:25:40;100023.56;;;-3.82;52.23
64679;BME280;51094;53.864;27.676;2023-11-22T08:28:10;100015.94;;;-3.65;51.29
64679;BME280;51094;53.864;27.676;2023-11-22T08:30:37;100039.59;;;-3.37;51.01
64679;BME280;51094;53.864;27.676;2023-11-22T08:33:04;100014.22;;;-3.57;49.12
64679;BME280;51094;53.864;27.676;2023-11-22T08:35:31;100024.44;;;-3.90;49.47
64679;BME280;51094;53.864;27.676;2023-11-22T08:37:58;99947.41;;;-4.33;49.81
64679;BME280;51094;53.864;27.676;2023-11-22T08:40:25;100037.13;;;-3.77;50.95
64679;BME280;51094;53.864;27.676;2023-11-22T08:42:52;100032.03;;;-3.75;49.45
64679;BME280;51094;53.864;27.676;2023-11-22T08:45:20;99987.16;;;-4.17;50.07
64679;BME280;51094;53.864;27.676;2023-11-22T08:47:47;100000.72;;;-4.17;49.85
64679;BME280;51094;53.864;27.676;2023-11-22T08:50:14;100035.41;;;-3.69;50.58
64679;BME280;51094;53.864;27.676;2023-11-22T08:52:42;100021.88;;;-3.75;49.49
64679;BME280;51094;53.864;27.676;2023-11-22T08:55:12;100043.88;;;-3.68;50.08
64679;BME280;51094;53.864;27.676;2023-11-22T08:57:41;100002.41;;;-3.94;49.96
64679;BME280;51094;53.864;27.676;2023-11-22T09:00:09;100046.44;;;-3.68;49.79
64679;BME280;51094;53.864;27.676;2023-11-22T09:02:37;100033.72;;;-3.56;50.76
64679;BME280;51094;53.864;27.676;2023-11-22T09:05:05;100043.81;;;-3.19;50.18
64679;BME280;51094;53.864;27.676;2023-11-22T09:07:36;100030.22;;;-3.15;49.78
64679;BME280;51094;53.864;27.676;2023-11-22T09:10:05;100036.94;;;-2.96;49.77
64679;BME280;51094;53.864;27.676;2023-11-22T09:12:37;100039.44;;;-2.88;50.21
64679;BME280;51094;53.864;27.676;2023-11-22T09:15:12;100020.72;;;-2.71;49.20
64679;BME280;51094;53.864;27.676;2023-11-22T09:17:42;100008.00;;;-2.72;48.75
64679;BME280;51094;53.864;27.676;2023-11-22T09:20:10;100007.94;;;-2.60;49.74
64679;BME280;51094;53.864;27.676;2023-11-22T09:22:42;99999.41;;;-2.59;49.33
64679;BME280;51094;53.864;27.676;2023-11-22T09:25:19;100010.44;;;-2.58;49.57
64679;BME280;51094;53.864;27.676;2023-11-22T09:27:47;100013.03;;;-2.60;49.03
64679;BME280;51094;53.864;27.676;2023-11-22T09:30:16;100018.00;;;-2.42;48.50
64679;BME280;51094;53.864;27.676;2023-11-22T09:33:03;100006.09;;;-2.38;48.80
64679;BME280;51094;53.864;27.676;2023-11-22T09:35:31;100017.19;;;-2.48;48.23
64679;BME280;51094;53.864;27.676;2023-11-22T09:37:59;100007.81;;;-2.45;48.35
64679;BME280;51094;53.864;27.676;2023-11-22T09:40:26;100011.97;;;-2.27;47.25
64679;BME280;51094;53.864;27.676;2023-11-22T09:42:55;100015.31;;;-2.17;47.12
64679;BME280;51094;53.864;27.676;2023-11-22T09:45:24;100011.91;;;-2.19;47.83
64679;BME280;51094;53.864;27.676;2023-11-22T09:47:52;99983.13;;;-2.32;48.10
64679;BME280;51094;53.864;27.676;2023-11-22T09:50:26;100008.38;;;-2.02;47.75
64679;BME280;51094;53.864;27.676;2023-11-22T09:53:00;99946.66;;;-2.37;47.59
64679;BME280;51094;53.864;27.676;2023-11-22T09:55:28;100025.41;;;-2.07;46.93
64679;BME280;51094;53.864;27.676;2023-11-22T09:57:58;100017.00;;;-2.18;46.32
64679;BME280;51094;53.864;27.676;2023-11-22T10:00:29;99994.41;;;-2.66;46.74
64679;BME280;51094;53.864;27.676;2023-11-22T10:02:59;99961.41;;;-2.91;47.47
64679;BME280;51094;53.864;27.676;2023-11-22T10:05:26;100005.47;;;-2.77;47.55
64679;BME280;51094;53.864;27.676;2023-11-22T10:07:56;100017.22;;;-2.57;48.49
64679;BME280;51094;53.864;27.676;2023-11-22T10:10:23;99985.91;;;-2.69;47.94
64679;BME280;51094;53.864;27.676;2023-11-22T10:12:55;100012.94;;;-2.51;48.03
64679;BME280;51094;53.864;27.676;2023-11-22T10:15:22;99968.97;;;-2.71;47.03
64679;BME280;51094;53.864;27.676;2023-11-22T10:17:59;99853.13;;;-3.38;48.26
64679;BME280;51094;53.864;27.676;2023-11-22T10:20:38;99978.81;;;-2.21;47.76
64679;BME280;51094;53.864;27.676;2023-11-22T10:23:13;99976.09;;;-2.03;47.69
64679;BME280;51094;53.864;27.676;2023-11-22T10:25:48;99999.53;;;-1.62;47.56
64679;BME280;51094;53.864;27.676;2023-11-22T10:28:17;100012.28;;;-1.62;46.90
64679;BME280;51094;53.864;27.676;2023-11-22T10:30:49;99998.84;;;-1.80;46.82
64679;BME280;51094;53.864;27.676;2023-11-22T10:33:18;99977.03;;;-2.13;46.93
64679;BME280;51094;53.864;27.676;2023-11-22T10:35:50;99898.31;;;-2.46;47.32
64679;BME280;51094;53.864;27.676;2023-11-22T10:38:20;99994.69;;;-1.91;46.99
64679;BME280;51094;53.864;27.676;2023-11-22T10:40:47;99992.22;;;-1.99;47.27
64679;BME280;51094;53.864;27.676;2023-11-22T10:43:15;99908.69;;;-2.67;47.51
64679;BME280;51094;53.864;27.676;2023-11-22T10:45:44;99991.59;;;-2.30;47.32
64679;BME280;51094;53.864;27.676;2023-11-22T10:48:15;99957.06;;;-2.67;47.51
64679;BME280;51094;53.864;27.676;2023-11-22T10:50:47;100031.53;;;-2.30;47.95
64679;BME280;51094;53.864;27.676;2023-11-22T10:53:21;100005.44;;;-2.71;48.27
64679;BME280;51094;53.864;27.676;2023-11-22T10:55:57;100041.91;;;-2.65;48.67
64679;BME280;51094;53.864;27.676;2023-11-22T10:58:27;100062.13;;;-2.41;48.99
64679;BME280;51094;53.864;27.676;2023-11-22T11:00:55;100040.03;;;-2.36;49.43
64679;BME280;51094;53.864;27.676;2023-11-22T11:03:24;100040.03;;;-2.35;50.05
64679;BME280;51094;53.864;27.676;2023-11-22T11:06:02;99995.16;;;-2.58;49.93
64679;BME280;51094;53.864;27.676;2023-11-22T11:08:32;99983.28;;;-2.56;50.57
64679;BME280;51094;53.864;27.676;2023-11-22T11:11:00;99942.66;;;-2.73;50.13
64679;BME280;51094;53.864;27.676;2023-11-22T11:13:30;100004.31;;;-2.25;50.50
64679;BME280;51094;53.864;27.676;2023-11-22T11:15:57;100018.63;;;-2.12;50.66
64679;BME280;51094;53.864;27.676;2023-11-22T11:18:25;100017.84;;;-2.17;49.85
64679;BME280;51094;53.864;27.676;2023-11-22T11:20:56;100018.78;;;-2.29;50.11
64679;BME280;51094;53.864;27.676;2023-11-22T11:23:27;99938.50;;;-2.89;49.71
64679;BME280;51094;53.864;27.676;2023-11-22T11:26:14;100020.56;;;-2.48;49.86
64679;BME280;51094;53.864;27.676;2023-11-22T11:28:47;100017.22;;;-2.57;50.61
64679;BME280;51094;53.864;27.676;2023-11-22T11:31:16;99991.03;;;-2.76;50.48
64679;BME280;51094;53.864;27.676;2023-11-22T11:36:27;99996.88;;;-2.57;49.61
64679;BME280;51094;53.864;27.676;2023-11-22T11:38:57;100023.09;;;-2.43;50.05
64679;BME280;51094;53.864;27.676;2023-11-22T11:41:29;100023.94;;;-2.41;50.39
64679;BME280;51094;53.864;27.676;2023-11-22T11:44:00;100033.31;;;-2.51;50.08
64679;BME280;51094;53.864;27.676;2023-11-22T11:46:28;100068.25;;;-2.70;50.41
64679;BME280;51094;53.864;27.676;2023-11-22T11:48:56;100004.69;;;-2.97;51.04
64679;BME280;51094;53.864;27.676;2023-11-22T11:51:26;100012.31;;;-2.88;51.01
64679;BME280;51094;53.864;27.676;2023-11-22T11:53:54;100019.03;;;-2.75;51.47
64679;BME280;51094;53.864;27.676;2023-11-22T11:56:22;100028.34;;;-2.69;51.08
64679;BME280;51094;53.864;27.676;2023-11-22T11:58:50;100034.31;;;-2.75;51.42
64679;BME280;51094;53.864;27.676;2023-11-22T12:01:18;100028.41;;;-2.86;51.55
64679;BME280;51094;53.864;27.676;2023-11-22T12:03:47;100044.53;;;-2.90;52.11
64679;BME280;51094;53.864;27.676;2023-11-22T12:06:19;99995.47;;;-3.13;52.66
64679;BME280;51094;53.864;27.676;2023-11-22T12:08:47;100032.66;;;-2.88;52.69
64679;BME280;51094;53.864;27.676;2023-11-22T12:11:15;99950.63;;;-3.46;52.86
64679;BME280;51094;53.864;27.676;2023-11-22T12:13:43;99981.91;;;-3.21;52.84
64679;BME280;51094;53.864;27.676;2023-11-22T12:16:14;100034.34;;;-2.81;52.69
64679;BME280;51094;53.864;27.676;2023-11-22T12:18:49;100062.34;;;-2.82;53.25
64679;BME280;51094;53.864;27.676;2023-11-22T12:21:17;100004.66;;;-2.83;53.14
64679;BME280;51094;53.864;27.676;2023-11-22T12:23:46;100030.97;;;-2.89;53.57
64679;BME280;51094;53.864;27.676;2023-11-22T12:26:17;100020.78;;;-2.83;53.48
64679;BME280;51094;53.864;27.676;2023-11-22T12:28:47;100013.16;;;-2.87;53.33
64679;BME280;51094;53.864;27.676;2023-11-22T12:31:29;99969.16;;;-3.06;53.34
64679;BME280;51094;53.864;27.676;2023-11-22T12:33:57;99970.91;;;-3.22;53.79
64679;BME280;51094;53.864;27.676;2023-11-22T12:36:25;99960.75;;;-3.36;54.02
64679;BME280;51094;53.864;27.676;2023-11-22T12:38:55;100003.84;;;-2.96;54.14
64679;BME280;51094;53.864;27.676;2023-11-22T12:41:22;100019.13;;;-2.99;54.62
64679;BME280;51094;53.864;27.676;2023-11-22T12:44:09;100020.03;;;-3.12;54.54
64679;BME280;51094;53.864;27.676;2023-11-22T12:49:15;99952.38;;;-3.62;55.22
64679;BME280;51094;53.864;27.676;2023-11-22T12:51:47;100019.22;;;-3.14;56.34
64679;BME280;51094;53.864;27.676;2023-11-22T12:54:15;100006.50;;;-3.16;55.47
64679;BME280;51094;53.864;27.676;2023-11-22T13:02:08;100017.38;;;-2.83;55.44
64679;BME280;51094;53.864;27.676;2023-11-22T13:04:36;99968.31;;;-3.14;55.88